Time;durP1;ratioP1;P1;durP2;ratioP2;P2;SDS_P1;SDS_P2;PMS_P1;PMS_P2;Temp;Humidity;BMP_temperature;BMP_pressure;BME280_temperature;BME280_humidity;BME280_pressure;Samples;Min_cycle;Max_cycle;Signal;HPM_P1;HPM_P2
2023/12/07 00:01:37;;;;;;;18.93;14.53;;;1.80;99.90;;;;;;5078421;28;20195;-65
2023/12/07 00:04:04;;;;;;;18.37;14.97;;;1.80;99.90;;;;;;5063941;28;20316;-64
2023/12/07 00:06:31;;;;;;;21.83;15.30;;;1.80;99.90;;;;;;5047432;28;20206;-63
2023/12/07 00:08:58;;;;;;;22.17;16.63;;;1.90;99.90;;;;;;5046967;28;20334;-63
2023/12/07 00:11:25;;;;;;;17.00;13.97;;;1.80;99.90;;;;;;5054487;28;20208;-64
2023/12/07 00:13:52;;;;;;;16.83;13.83;;;1.80;99.90;;;;;;5067584;28;20211;-63
2023/12/07 00:16:19;;;;;;;15.90;12.20;;;1.80;99.90;;;;;;5067415;28;20215;-64
2023/12/07 00:18:47;;;;;;;16.30;12.93;;;1.80;99.90;;;;;;5065246;28;20203;-64
2023/12/07 00:21:14;;;;;;;16.27;12.67;;;1.90;99.90;;;;;;5047810;28;20303;-64
2023/12/07 00:23:41;;;;;;;15.93;13.17;;;1.90;99.90;;;;;;5047064;28;20583;-65
2023/12/07 00:26:08;;;;;;;13.60;12.10;;;1.80;99.90;;;;;;5063084;28;20638;-64
2023/12/07 00:28:34;;;;;;;17.67;13.90;;;1.90;99.90;;;;;;5067187;28;20231;-64
2023/12/07 00:31:01;;;;;;;16.67;13.23;;;1.90;99.90;;;;;;5066263;28;20302;-64
2023/12/07 00:33:28;;;;;;;16.30;13.23;;;1.90;99.90;;;;;;5066697;28;20200;-66
2023/12/07 00:35:57;;;;;;;15.93;12.80;;;1.90;99.90;;;;;;5065771;28;20245;-65
2023/12/07 00:38:23;;;;;;;17.80;13.00;;;1.90;99.90;;;;;;5047786;28;21022;-64
2023/12/07 00:40:50;;;;;;;15.27;13.13;;;1.90;99.90;;;;;;5054129;28;20282;-65
2023/12/07 00:43:18;;;;;;;15.33;12.97;;;1.90;99.90;;;;;;5066425;28;20217;-65
2023/12/07 00:45:45;;;;;;;16.47;12.57;;;1.90;99.90;;;;;;5066837;28;20234;-65
2023/12/07 00:48:11;;;;;;;15.03;12.77;;;1.90;99.90;;;;;;5048895;28;20639;-65
2023/12/07 00:50:38;;;;;;;15.53;13.00;;;1.90;99.90;;;;;;5046674;28;20299;-64
2023/12/07 00:53:07;;;;;;;17.77;13.33;;;1.90;99.90;;;;;;5047017;28;20283;-65
2023/12/07 00:55:34;;;;;;;17.10;13.37;;;1.90;99.90;;;;;;5058095;28;20211;-65
2023/12/07 00:58:01;;;;;;;16.00;12.87;;;1.90;99.90;;;;;;5066997;28;20510;-64
2023/12/07 01:00:28;;;;;;;16.30;12.77;;;1.90;99.90;;;;;;5066234;28;20670;-66
2023/12/07 01:02:55;;;;;;;17.13;13.17;;;1.80;99.90;;;;;;5051276;28;20218;-65
2023/12/07 01:05:22;;;;;;;16.33;13.07;;;1.80;99.90;;;;;;5046785;28;20306;-65
2023/12/07 01:07:49;;;;;;;16.50;13.40;;;1.80;99.90;;;;;;5046924;28;20282;-65
2023/12/07 01:10:17;;;;;;;16.03;12.97;;;1.80;99.90;;;;;;5046658;28;20228;-65
2023/12/07 01:12:44;;;;;;;17.33;13.10;;;1.80;99.90;;;;;;5064433;28;20300;-64
2023/12/07 01:15:11;;;;;;;16.27;12.80;;;1.80;99.90;;;;;;5066432;28;20306;-65
2023/12/07 01:17:38;;;;;;;15.30;12.70;;;1.80;99.90;;;;;;5066820;28;20292;-65
2023/12/07 01:20:11;;;;;;;15.20;12.47;;;1.80;99.90;;;;;;5066615;28;20212;-65
2023/12/07 01:22:39;;;;;;;16.83;12.83;;;1.80;99.90;;;;;;5065958;28;20683;-64
2023/12/07 01:25:07;;;;;;;17.27;13.63;;;1.90;99.90;;;;;;5066208;28;20290;-64
2023/12/07 01:27:35;;;;;;;16.20;13.27;;;1.90;99.90;;;;;;5066597;28;20290;-64
2023/12/07 01:30:03;;;;;;;15.90;12.77;;;1.90;99.90;;;;;;5066246;28;20235;-65
2023/12/07 01:32:30;;;;;;;16.57;13.33;;;1.80;99.90;;;;;;5056135;28;20581;-64
2023/12/07 01:34:57;;;;;;;14.73;12.33;;;1.80;99.90;;;;;;5046646;28;20250;-64
2023/12/07 01:37:24;;;;;;;16.27;12.70;;;1.80;99.90;;;;;;5046907;28;20314;-64
2023/12/07 01:39:51;;;;;;;16.13;12.93;;;1.80;99.90;;;;;;5046602;28;20218;-64
2023/12/07 01:42:18;;;;;;;15.73;13.03;;;1.80;99.90;;;;;;5046621;28;20201;-65
2023/12/07 01:44:46;;;;;;;17.83;13.07;;;1.80;99.90;;;;;;5046322;28;20252;-64
2023/12/07 01:47:13;;;;;;;16.27;13.40;;;1.80;99.90;;;;;;5046382;28;20232;-65
2023/12/07 01:49:41;;;;;;;15.30;12.30;;;1.80;99.90;;;;;;5046687;28;20293;-64
2023/12/07 01:52:09;;;;;;;15.00;12.17;;;1.80;99.90;;;;;;5059199;28;20283;-64
2023/12/07 01:54:36;;;;;;;17.87;13.17;;;1.80;99.90;;;;;;5051132;28;20288;-65
2023/12/07 01:57:04;;;;;;;14.43;12.70;;;1.90;99.90;;;;;;5057609;28;20216;-64
2023/12/07 01:59:31;;;;;;;15.10;12.67;;;1.80;99.90;;;;;;5051043;28;20797;-65
2023/12/07 02:01:59;;;;;;;16.90;13.67;;;1.80;99.90;;;;;;5069754;28;20278;-65
2023/12/07 02:04:26;;;;;;;15.90;12.73;;;1.80;99.90;;;;;;5069760;28;20322;-64
2023/12/07 02:06:54;;;;;;;16.07;12.97;;;1.90;99.90;;;;;;5056712;28;20227;-65
2023/12/07 02:09:22;;;;;;;15.60;12.33;;;1.90;99.90;;;;;;5049588;28;20323;-65
2023/12/07 02:11:49;;;;;;;15.83;13.00;;;1.90;99.90;;;;;;5059607;28;20253;-64
2023/12/07 02:14:17;;;;;;;15.83;13.23;;;1.90;99.90;;;;;;5069628;28;20235;-64
2023/12/07 02:16:48;;;;;;;14.10;12.60;;;1.90;99.90;;;;;;5070085;28;20211;-65
2023/12/07 02:19:33;;;;;;;16.23;12.43;;;1.90;99.90;;;;;;5069648;28;20212;-64
2023/12/07 02:22:05;;;;;;;14.13;11.70;;;1.90;99.90;;;;;;5069586;28;20338;-64
2023/12/07 02:24:38;;;;;;;15.30;12.67;;;1.90;99.90;;;;;;5069341;28;20733;-65
2023/12/07 02:27:06;;;;;;;16.03;12.03;;;1.90;99.90;;;;;;5069601;28;20192;-66
2023/12/07 02:29:33;;;;;;;16.20;12.97;;;1.90;99.90;;;;;;5069322;28;20437;-65
2023/12/07 02:32:00;;;;;;;16.53;13.13;;;1.90;99.90;;;;;;5069169;28;20207;-64
2023/12/07 02:34:27;;;;;;;15.77;12.80;;;1.80;99.90;;;;;;5069093;28;21066;-64
2023/12/07 02:36:56;;;;;;;17.83;13.33;;;1.90;99.90;;;;;;5067879;28;20287;-64
2023/12/07 02:39:25;;;;;;;16.53;12.93;;;1.80;99.90;;;;;;5068941;28;20299;-64
2023/12/07 02:41:54;;;;;;;15.90;13.23;;;1.80;99.90;;;;;;5069141;28;20231;-65
2023/12/07 02:44:22;;;;;;;15.63;12.23;;;1.80;99.90;;;;;;5069429;28;20254;-65
2023/12/07 02:46:50;;;;;;;15.13;13.03;;;1.70;99.90;;;;;;5069636;28;20326;-64
2023/12/07 02:49:16;;;;;;;17.10;13.20;;;1.80;99.90;;;;;;5068983;28;20318;-65
2023/12/07 02:51:43;;;;;;;16.17;13.00;;;1.80;99.90;;;;;;5055026;28;20263;-64
2023/12/07 02:54:10;;;;;;;15.50;13.03;;;1.80;99.90;;;;;;5068010;28;20726;-65
2023/12/07 02:56:37;;;;;;;15.97;13.00;;;1.80;99.90;;;;;;5068737;28;20286;-64
2023/12/07 02:59:04;;;;;;;16.40;13.33;;;1.80;99.90;;;;;;5068834;28;20300;-64
2023/12/07 03:01:32;;;;;;;15.87;12.37;;;1.70;99.90;;;;;;5068671;28;20206;-64
2023/12/07 03:03:59;;;;;;;15.03;12.43;;;1.70;99.90;;;;;;5049128;28;20938;-64
2023/12/07 03:06:26;;;;;;;17.67;13.57;;;1.80;99.90;;;;;;5048444;28;21030;-64
2023/12/07 03:08:53;;;;;;;16.13;12.70;;;1.70;99.90;;;;;;5048560;28;20271;-64
2023/12/07 03:11:19;;;;;;;16.57;13.30;;;1.70;99.90;;;;;;5062679;28;20204;-64
2023/12/07 03:13:46;;;;;;;14.73;12.50;;;1.70;99.90;;;;;;5068040;28;20818;-64
2023/12/07 03:16:13;;;;;;;15.23;11.83;;;1.70;99.90;;;;;;5068532;28;20318;-64
2023/12/07 03:18:41;;;;;;;18.20;13.70;;;1.70;99.90;;;;;;5068331;28;20239;-65
2023/12/07 03:21:08;;;;;;;16.70;12.67;;;1.70;99.90;;;;;;5067987;28;20707;-64
2023/12/07 03:23:36;;;;;;;16.67;13.40;;;1.70;99.90;;;;;;5068219;28;20572;-64
2023/12/07 03:26:03;;;;;;;16.10;13.30;;;1.70;99.90;;;;;;5059766;28;20953;-64
2023/12/07 03:28:29;;;;;;;16.93;12.83;;;1.70;99.90;;;;;;5054793;28;20307;-64
2023/12/07 03:30:56;;;;;;;17.07;13.50;;;1.80;99.90;;;;;;5065003;28;20795;-64
2023/12/07 03:33:23;;;;;;;16.57;12.90;;;1.70;99.90;;;;;;5053236;28;20228;-64
2023/12/07 03:35:51;;;;;;;17.50;13.23;;;1.60;99.90;;;;;;5045917;28;20283;-64
2023/12/07 03:38:18;;;;;;;17.80;13.67;;;1.60;99.90;;;;;;5046002;28;20208;-64
2023/12/07 03:40:47;;;;;;;18.13;13.50;;;1.70;99.90;;;;;;5045989;28;20220;-64
2023/12/07 03:43:14;;;;;;;19.83;14.13;;;1.70;99.90;;;;;;5045783;28;20760;-64
2023/12/07 03:45:41;;;;;;;17.20;13.47;;;1.70;99.90;;;;;;5045634;28;20211;-64
2023/12/07 03:48:08;;;;;;;16.50;13.00;;;1.70;99.90;;;;;;5046164;28;20294;-64
2023/12/07 03:50:35;;;;;;;17.77;13.63;;;1.70;99.90;;;;;;5055963;28;20258;-64
2023/12/07 03:53:03;;;;;;;18.67;13.43;;;1.70;99.90;;;;;;5062600;28;20228;-64
2023/12/07 03:55:30;;;;;;;16.53;12.97;;;1.70;99.90;;;;;;5067325;28;20298;-64
2023/12/07 03:57:57;;;;;;;19.47;14.03;;;1.70;99.90;;;;;;5066637;28;20302;-64
2023/12/07 04:00:23;;;;;;;17.00;13.10;;;1.70;99.90;;;;;;5066666;28;20261;-64
2023/12/07 04:02:50;;;;;;;17.83;13.03;;;1.70;99.90;;;;;;5048776;28;20291;-64
2023/12/07 04:05:17;;;;;;;17.77;13.83;;;1.70;99.90;;;;;;5046238;28;20298;-64
2023/12/07 04:07:44;;;;;;;18.37;13.30;;;1.70;99.90;;;;;;5047626;28;20669;-64
2023/12/07 04:10:13;;;;;;;16.20;13.77;;;1.70;99.90;;;;;;5047286;28;20322;-64
2023/12/07 04:12:39;;;;;;;17.10;13.63;;;1.80;99.90;;;;;;5047180;28;20255;-64
2023/12/07 04:15:08;;;;;;;18.10;12.93;;;1.80;99.90;;;;;;5047193;28;20204;-64
2023/12/07 04:17:34;;;;;;;18.30;14.17;;;1.80;99.90;;;;;;5046757;28;20641;-64
2023/12/07 04:20:06;;;;;;;16.67;13.43;;;1.70;99.90;;;;;;5047181;28;20208;-64
2023/12/07 04:22:33;;;;;;;17.97;13.67;;;1.80;99.90;;;;;;5047146;28;20208;-64
2023/12/07 04:25:00;;;;;;;17.80;13.60;;;1.80;99.90;;;;;;5053871;28;20215;-64
2023/12/07 04:27:28;;;;;;;17.00;13.47;;;1.80;99.90;;;;;;5067112;28;20239;-64
2023/12/07 04:29:55;;;;;;;16.97;13.57;;;1.80;99.90;;;;;;5066724;28;20283;-64
2023/12/07 04:32:22;;;;;;;15.80;12.80;;;1.80;99.90;;;;;;5067295;28;20203;-64
2023/12/07 04:34:48;;;;;;;16.80;13.67;;;1.80;99.90;;;;;;5067253;28;20203;-64
2023/12/07 04:37:15;;;;;;;17.57;13.97;;;1.80;99.90;;;;;;5047257;28;20334;-64
2023/12/07 04:39:42;;;;;;;19.27;13.70;;;1.70;99.90;;;;;;5047351;28;20258;-64
2023/12/07 04:42:09;;;;;;;17.90;13.33;;;1.80;99.90;;;;;;5046808;28;20216;-65
2023/12/07 04:44:37;;;;;;;17.67;13.77;;;1.80;99.90;;;;;;5046882;28;20273;-65
2023/12/07 04:47:05;;;;;;;17.53;12.90;;;1.80;99.90;;;;;;5046969;28;20289;-65
2023/12/07 04:49:32;;;;;;;19.90;13.87;;;1.80;99.90;;;;;;5046631;28;20250;-64
2023/12/07 04:51:58;;;;;;;19.27;14.17;;;1.80;99.90;;;;;;5046754;28;20824;-64
2023/12/07 04:54:27;;;;;;;16.97;13.93;;;1.70;99.90;;;;;;5048867;28;20306;-64
2023/12/07 04:56:54;;;;;;;19.73;13.87;;;1.80;99.90;;;;;;5066733;28;20211;-64
2023/12/07 04:59:21;;;;;;;18.13;14.33;;;1.80;99.90;;;;;;5066801;28;20235;-64
2023/12/07 05:01:49;;;;;;;18.97;14.23;;;1.80;99.90;;;;;;5066946;28;20637;-65
2023/12/07 05:04:16;;;;;;;19.97;14.40;;;1.80;99.90;;;;;;5066619;28;20203;-64
2023/12/07 05:06:43;;;;;;;19.03;14.17;;;1.80;99.90;;;;;;5066614;28;20564;-64
2023/12/07 05:09:10;;;;;;;20.40;13.73;;;1.80;99.90;;;;;;5066441;28;20243;-64
2023/12/07 05:11:37;;;;;;;18.30;13.53;;;1.80;99.90;;;;;;5067041;28;20239;-64
2023/12/07 05:14:04;;;;;;;21.60;14.73;;;1.80;99.90;;;;;;5066364;28;20696;-64
2023/12/07 05:16:31;;;;;;;19.77;14.03;;;1.90;99.90;;;;;;5066760;28;20677;-64
2023/12/07 05:18:59;;;;;;;23.40;15.30;;;1.90;99.90;;;;;;5066746;28;20292;-64
2023/12/07 05:21:26;;;;;;;20.27;14.73;;;1.80;99.90;;;;;;5066715;28;20298;-64
2023/12/07 05:23:53;;;;;;;22.33;15.00;;;1.80;99.90;;;;;;5066947;28;20214;-64
2023/12/07 05:26:21;;;;;;;21.33;14.33;;;1.80;99.90;;;;;;5066081;28;20219;-64
2023/12/07 05:28:48;;;;;;;21.07;14.43;;;1.80;99.90;;;;;;5066392;28;20211;-64
2023/12/07 05:31:17;;;;;;;20.00;14.30;;;1.80;99.90;;;;;;5069187;28;21033;-64
2023/12/07 05:33:44;;;;;;;21.17;14.37;;;1.80;99.90;;;;;;5050577;28;20218;-64
2023/12/07 05:36:13;;;;;;;21.90;14.07;;;1.80;99.90;;;;;;5050384;28;20287;-64
2023/12/07 05:38:39;;;;;;;23.77;14.67;;;1.90;99.90;;;;;;5051116;28;20586;-64
2023/12/07 05:41:06;;;;;;;21.60;15.33;;;1.90;99.90;;;;;;5050507;28;20215;-64
2023/12/07 05:43:34;;;;;;;22.03;15.43;;;1.90;99.90;;;;;;5050354;28;20244;-64
2023/12/07 05:46:01;;;;;;;25.87;15.20;;;1.90;99.90;;;;;;5050426;28;20216;-65
2023/12/07 05:48:30;;;;;;;23.00;15.57;;;1.90;99.90;;;;;;5050564;28;20232;-64
2023/12/07 05:50:59;;;;;;;22.27;14.77;;;1.90;99.90;;;;;;5048943;28;20254;-64
2023/12/07 05:53:28;;;;;;;23.50;15.07;;;1.90;99.90;;;;;;5050794;28;20247;-64
2023/12/07 05:55:55;;;;;;;25.20;15.87;;;1.90;99.90;;;;;;5064340;28;20216;-64
2023/12/07 05:58:22;;;;;;;27.73;17.40;;;1.90;99.90;;;;;;5069582;28;20682;-64
2023/12/07 06:00:49;;;;;;;25.63;16.17;;;1.90;99.90;;;;;;5069958;28;20615;-65
2023/12/07 06:03:16;;;;;;;24.50;15.60;;;1.80;99.90;;;;;;5069921;28;20211;-64
2023/12/07 06:05:45;;;;;;;24.83;15.90;;;1.80;99.90;;;;;;5070022;28;20213;-64
2023/12/07 06:08:12;;;;;;;25.60;15.83;;;1.80;99.90;;;;;;5069874;28;20243;-64
2023/12/07 06:10:40;;;;;;;23.47;15.17;;;1.80;99.90;;;;;;5069809;28;20328;-64
2023/12/07 06:13:07;;;;;;;23.70;16.30;;;1.80;99.90;;;;;;5069185;28;20239;-64
2023/12/07 06:15:34;;;;;;;23.83;16.40;;;1.80;99.90;;;;;;5069593;28;20727;-64
2023/12/07 06:18:01;;;;;;;27.27;17.13;;;1.80;99.90;;;;;;5069601;28;20206;-64
2023/12/07 06:20:28;;;;;;;27.27;17.43;;;1.80;99.90;;;;;;5069657;28;20207;-64
2023/12/07 06:22:55;;;;;;;27.57;17.27;;;1.80;99.90;;;;;;5069512;28;20662;-63
2023/12/07 06:25:22;;;;;;;27.40;16.37;;;1.80;99.90;;;;;;5060079;28;20251;-64
2023/12/07 06:27:50;;;;;;;29.93;17.40;;;1.80;99.90;;;;;;5049218;28;20208;-64
2023/12/07 06:30:17;;;;;;;24.80;15.47;;;1.80;99.90;;;;;;5048993;28;20330;-64
2023/12/07 06:32:45;;;;;;;23.30;15.27;;;1.80;99.90;;;;;;5049338;28;20702;-65
2023/12/07 06:35:13;;;;;;;22.80;15.17;;;1.90;99.90;;;;;;5051309;28;20207;-64
2023/12/07 06:37:41;;;;;;;21.23;14.77;;;1.90;99.90;;;;;;5069706;28;20207;-64
2023/12/07 06:40:10;;;;;;;24.03;14.53;;;1.90;99.90;;;;;;5068342;28;20609;-64
2023/12/07 06:42:37;;;;;;;18.90;14.00;;;1.90;99.90;;;;;;5069094;28;20587;-64
2023/12/07 06:45:10;;;;;;;22.03;13.87;;;2.00;99.90;;;;;;5069222;28;20298;-65
2023/12/07 06:47:37;;;;;;;23.80;14.83;;;2.00;99.90;;;;;;5069545;28;20241;-64
2023/12/07 06:50:08;;;;;;;21.60;14.90;;;2.10;99.90;;;;;;5068923;28;20231;-64
2023/12/07 06:52:35;;;;;;;24.87;15.70;;;2.20;99.90;;;;;;5069306;28;20196;-65
2023/12/07 06:55:02;;;;;;;24.97;16.53;;;2.20;99.90;;;;;;5068988;28;20209;-64
2023/12/07 06:57:28;;;;;;;22.37;15.57;;;2.10;99.90;;;;;;5069211;28;20251;-64
2023/12/07 06:59:56;;;;;;;21.63;15.03;;;2.10;99.90;;;;;;5068886;28;20315;-64
2023/12/07 07:02:24;;;;;;;22.73;15.57;;;2.10;99.90;;;;;;5069047;28;20692;-64
2023/12/07 07:04:51;;;;;;;23.80;15.73;;;2.10;99.90;;;;;;5064814;28;20291;-64
2023/12/07 07:07:18;;;;;;;21.90;14.93;;;2.10;99.90;;;;;;5057922;28;20252;-64
2023/12/07 07:09:45;;;;;;;22.20;14.67;;;2.10;99.90;;;;;;5067643;28;20230;-64
2023/12/07 07:12:12;;;;;;;20.90;14.70;;;2.10;99.90;;;;;;5068208;28;20270;-64
2023/12/07 07:14:39;;;;;;;23.17;15.43;;;2.00;99.90;;;;;;5068848;28;20247;-64
2023/12/07 07:17:06;;;;;;;24.43;15.73;;;2.00;99.90;;;;;;5068376;28;20199;-65
2023/12/07 07:19:34;;;;;;;22.20;14.77;;;2.00;99.90;;;;;;5069186;28;20609;-64
2023/12/07 07:22:01;;;;;;;21.60;15.00;;;2.00;99.90;;;;;;5067967;28;20977;-64
2023/12/07 07:24:28;;;;;;;20.13;13.90;;;2.00;99.90;;;;;;5068533;28;20203;-64
2023/12/07 07:26:55;;;;;;;23.17;15.77;;;2.00;99.90;;;;;;5068481;28;20214;-64
2023/12/07 07:29:22;;;;;;;22.50;15.07;;;2.00;99.90;;;;;;5068280;28;20208;-64
2023/12/07 07:31:49;;;;;;;22.30;15.83;;;2.00;99.90;;;;;;5068122;28;20338;-64
2023/12/07 07:34:15;;;;;;;20.27;15.20;;;2.00;99.90;;;;;;5068109;28;20249;-64
2023/12/07 07:36:44;;;;;;;19.13;14.30;;;2.00;99.90;;;;;;5067942;28;20209;-63
2023/12/07 07:39:13;;;;;;;21.03;15.57;;;2.00;99.90;;;;;;5068138;28;20654;-63
2023/12/07 07:41:40;;;;;;;19.43;15.00;;;2.00;99.90;;;;;;5057318;28;20613;-63
2023/12/07 07:44:07;;;;;;;22.40;15.93;;;2.00;99.90;;;;;;5048209;28;20277;-63
2023/12/07 07:46:34;;;;;;;20.60;14.80;;;2.00;99.90;;;;;;5048293;28;20600;-63
2023/12/07 07:49:03;;;;;;;21.00;15.40;;;2.00;99.90;;;;;;5048144;28;20209;-63
2023/12/07 07:51:31;;;;;;;21.07;15.70;;;2.00;99.90;;;;;;5047553;28;20232;-63
2023/12/07 07:54:00;;;;;;;21.87;15.83;;;2.00;99.90;;;;;;5047653;28;20297;-63
2023/12/07 07:56:27;;;;;;;31.23;22.13;;;2.00;99.90;;;;;;5066290;28;20733;-64
2023/12/07 07:58:54;;;;;;;27.27;18.37;;;1.90;99.90;;;;;;5067381;28;20769;-65
2023/12/07 08:01:21;;;;;;;32.20;22.20;;;2.00;99.90;;;;;;5067853;28;20257;-63
2023/12/07 08:03:48;;;;;;;29.20;20.53;;;1.90;99.90;;;;;;5067784;28;20418;-63
2023/12/07 08:06:15;;;;;;;23.77;17.30;;;2.00;99.90;;;;;;5067466;28;20302;-63
2023/12/07 08:08:42;;;;;;;21.03;16.03;;;2.00;99.90;;;;;;5067020;28;20235;-63
2023/12/07 08:11:10;;;;;;;23.03;15.43;;;2.00;99.90;;;;;;5067393;28;20326;-64
2023/12/07 08:13:37;;;;;;;20.97;14.70;;;1.90;99.90;;;;;;5067542;28;20314;-63
2023/12/07 08:16:08;;;;;;;22.47;15.10;;;1.90;99.90;;;;;;5054438;28;20311;-63
2023/12/07 08:18:35;;;;;;;23.73;16.63;;;1.80;99.90;;;;;;5047961;28;20200;-63
2023/12/07 08:21:02;;;;;;;23.27;16.03;;;1.80;99.90;;;;;;5047184;28;20211;-63
2023/12/07 08:23:30;;;;;;;22.57;15.90;;;1.80;99.90;;;;;;5047629;28;20243;-63
2023/12/07 08:25:57;;;;;;;24.97;16.90;;;1.80;99.90;;;;;;5061546;28;20219;-63
2023/12/07 08:28:25;;;;;;;24.03;16.07;;;1.80;99.90;;;;;;5067330;28;20208;-63
2023/12/07 08:30:52;;;;;;;25.07;16.90;;;1.80;99.90;;;;;;5067140;28;20314;-63
2023/12/07 08:33:19;;;;;;;23.23;15.87;;;1.90;99.90;;;;;;5067185;28;20307;-63
2023/12/07 08:35:46;;;;;;;25.37;16.60;;;1.90;99.90;;;;;;5067008;28;20619;-63
2023/12/07 08:38:13;;;;;;;23.20;16.17;;;1.90;99.90;;;;;;5067186;28;20298;-63
2023/12/07 08:40:40;;;;;;;22.40;15.37;;;2.00;99.90;;;;;;5066788;28;20867;-63
2023/12/07 08:43:07;;;;;;;23.27;15.43;;;2.00;99.90;;;;;;5066719;28;20302;-63
2023/12/07 08:45:38;;;;;;;23.13;15.83;;;2.00;99.90;;;;;;5066708;28;20243;-63
2023/12/07 08:48:05;;;;;;;21.10;14.87;;;2.00;99.90;;;;;;5066816;28;20220;-64
2023/12/07 08:50:32;;;;;;;20.43;15.17;;;2.00;99.90;;;;;;5066881;28;20309;-63
2023/12/07 08:52:59;;;;;;;22.73;15.07;;;2.00;99.90;;;;;;5066499;28;20725;-64
2023/12/07 08:55:26;;;;;;;23.77;16.23;;;2.10;99.90;;;;;;5066800;28;20247;-63
2023/12/07 08:57:54;;;;;;;19.40;15.10;;;2.10;99.90;;;;;;5066724;28;20211;-63
2023/12/07 09:00:23;;;;;;;25.07;16.53;;;2.10;99.90;;;;;;5066675;28;20475;-63
2023/12/07 09:02:52;;;;;;;25.97;17.80;;;2.10;99.90;;;;;;5066446;28;20204;-63
2023/12/07 09:05:19;;;;;;;23.40;15.90;;;2.10;99.90;;;;;;5066505;28;20221;-63
2023/12/07 09:07:46;;;;;;;21.33;15.43;;;2.10;99.90;;;;;;5066117;28;20246;-64
2023/12/07 09:10:13;;;;;;;22.93;15.27;;;2.10;99.90;;;;;;5066644;28;20293;-63
2023/12/07 09:12:40;;;;;;;22.23;15.90;;;2.10;99.90;;;;;;5066426;28;20231;-63
2023/12/07 09:15:09;;;;;;;22.43;15.20;;;2.10;99.90;;;;;;5066225;28;20203;-63
2023/12/07 09:17:37;;;;;;;23.47;15.47;;;2.10;99.90;;;;;;5066799;28;20203;-63
2023/12/07 09:20:11;;;;;;;22.70;15.47;;;2.10;99.90;;;;;;5066407;28;20207;-63
2023/12/07 09:22:38;;;;;;;23.73;16.13;;;2.10;99.90;;;;;;5066433;28;20234;-63
2023/12/07 09:25:07;;;;;;;27.47;16.50;;;2.10;99.90;;;;;;5059125;28;20231;-63
2023/12/07 09:27:34;;;;;;;24.97;16.57;;;2.00;99.90;;;;;;5046180;28;20208;-63
2023/12/07 09:30:02;;;;;;;26.57;16.73;;;2.00;99.90;;;;;;5046456;28;20251;-63
2023/12/07 09:32:29;;;;;;;24.70;15.83;;;2.00;99.90;;;;;;5046676;28;20232;-63
2023/12/07 09:34:56;;;;;;;26.03;16.70;;;2.00;99.90;;;;;;5046278;28;20208;-63
2023/12/07 09:37:24;;;;;;;26.37;15.80;;;2.00;99.90;;;;;;5046294;28;20709;-63
2023/12/07 09:39:51;;;;;;;28.83;17.27;;;2.00;99.90;;;;;;5046153;28;20295;-63
2023/12/07 09:42:18;;;;;;;28.73;17.53;;;2.00;99.90;;;;;;5046077;28;20298;-64
2023/12/07 09:44:45;;;;;;;27.30;17.57;;;2.00;99.90;;;;;;5046598;28;20236;-63
2023/12/07 09:47:13;;;;;;;27.73;16.93;;;1.90;99.90;;;;;;5046259;28;20303;-63
2023/12/07 09:49:41;;;;;;;29.30;16.83;;;2.00;99.90;;;;;;5045815;28;20793;-63
2023/12/07 09:52:09;;;;;;;31.20;17.53;;;2.00;99.90;;;;;;5045899;28;20228;-63
2023/12/07 09:54:41;;;;;;;28.73;16.87;;;2.00;99.90;;;;;;5049703;28;20280;-63
2023/12/07 09:57:09;;;;;;;30.83;17.83;;;2.00;99.90;;;;;;5066193;28;20306;-63
2023/12/07 09:59:36;;;;;;;32.03;17.70;;;2.10;99.90;;;;;;5066363;28;20534;-63
2023/12/07 10:02:04;;;;;;;30.57;17.90;;;2.10;99.90;;;;;;5066396;28;20200;-63
2023/12/07 10:04:31;;;;;;;29.43;17.93;;;2.10;99.90;;;;;;5066281;28;20231;-64
2023/12/07 10:06:58;;;;;;;32.23;17.87;;;2.10;99.90;;;;;;5065873;28;20215;-64
2023/12/07 10:09:25;;;;;;;29.20;17.23;;;2.10;99.90;;;;;;5046130;28;20587;-63
2023/12/07 10:12:03;;;;;;;30.50;17.93;;;2.10;99.90;;;;;;5046157;28;20235;-63
2023/12/07 10:14:30;;;;;;;31.87;17.90;;;2.10;99.90;;;;;;5045916;28;20200;-64
2023/12/07 10:16:57;;;;;;;29.07;16.30;;;2.10;99.90;;;;;;5068536;28;20294;-63
2023/12/07 10:19:25;;;;;;;27.53;15.83;;;2.10;99.90;;;;;;5069653;28;20250;-63
2023/12/07 10:21:53;;;;;;;32.87;16.57;;;2.00;99.90;;;;;;5069249;28;20721;-63
2023/12/07 10:24:20;;;;;;;30.17;16.10;;;2.00;99.90;;;;;;5069173;28;20680;-64
2023/12/07 10:26:49;;;;;;;26.60;16.83;;;2.00;99.90;;;;;;5069494;28;20203;-63
2023/12/07 10:29:19;;;;;;;27.07;16.43;;;2.00;99.90;;;;;;5069427;28;20211;-63
2023/12/07 10:31:46;;;;;;;28.60;17.07;;;2.00;99.90;;;;;;5069458;28;20227;-63
2023/12/07 10:34:13;;;;;;;26.77;16.93;;;2.00;99.90;;;;;;5068987;28;20576;-63
2023/12/07 10:36:40;;;;;;;27.13;16.40;;;2.00;99.90;;;;;;5069116;28;20286;-63
2023/12/07 10:39:07;;;;;;;26.23;17.07;;;2.00;99.90;;;;;;5069261;28;20608;-63
2023/12/07 10:41:39;;;;;;;28.07;16.93;;;2.10;99.90;;;;;;5069495;28;20203;-63
2023/12/07 10:44:09;;;;;;;26.67;15.90;;;2.00;99.90;;;;;;5069175;28;20192;-63
2023/12/07 10:46:39;;;;;;;28.87;16.73;;;2.10;99.90;;;;;;5069097;28;20207;-63
2023/12/07 10:49:11;;;;;;;26.87;17.80;;;2.10;99.90;;;;;;5068537;28;20188;-64
2023/12/07 10:51:43;;;;;;;28.17;17.57;;;2.10;99.90;;;;;;5068989;28;20306;-64
2023/12/07 10:54:15;;;;;;;28.93;17.70;;;2.20;99.90;;;;;;5068882;28;20290;-64
2023/12/07 10:56:45;;;;;;;29.67;17.63;;;2.10;99.90;;;;;;5049073;28;20279;-64
2023/12/07 10:59:14;;;;;;;27.60;17.17;;;2.20;99.90;;;;;;5048935;28;20196;-64
2023/12/07 11:01:43;;;;;;;26.70;16.97;;;2.20;99.90;;;;;;5048946;28;20303;-64
2023/12/07 11:04:13;;;;;;;27.83;16.87;;;2.20;99.90;;;;;;5048783;28;20212;-64
2023/12/07 11:06:41;;;;;;;30.60;17.40;;;2.10;99.90;;;;;;5048748;28;20239;-64
2023/12/07 11:09:13;;;;;;;28.23;17.10;;;2.20;99.90;;;;;;5048294;28;20672;-64
2023/12/07 11:11:45;;;;;;;30.70;17.43;;;2.10;99.90;;;;;;5048824;28;20224;-64
2023/12/07 11:14:13;;;;;;;33.70;18.00;;;2.10;99.90;;;;;;5048511;28;20558;-64
2023/12/07 11:16:44;;;;;;;33.80;19.80;;;2.00;99.90;;;;;;5066046;28;20290;-64
2023/12/07 11:19:45;;;;;;;30.33;18.07;;;2.10;99.90;;;;;;5068394;28;20306;-65
2023/12/07 11:22:13;;;;;;;31.67;16.93;;;2.00;99.90;;;;;;5068228;28;20203;-66
2023/12/07 11:24:53;;;;;;;31.63;19.37;;;2.10;99.90;;;;;;5068373;28;20554;-64
2023/12/07 11:27:20;;;;;;;36.43;21.17;;;2.10;99.90;;;;;;5068038;28;20713;-64
2023/12/07 11:29:48;;;;;;;30.97;18.87;;;2.20;99.90;;;;;;5068468;28;20291;-64
2023/12/07 11:32:16;;;;;;;32.37;19.77;;;2.20;99.90;;;;;;5068039;28;20228;-64
2023/12/07 11:34:44;;;;;;;30.80;18.60;;;2.20;99.90;;;;;;5068587;28;20302;-64
2023/12/07 11:37:15;;;;;;;28.77;18.10;;;2.20;99.90;;;;;;5067441;28;20302;-64
2023/12/07 11:39:45;;;;;;;30.40;18.13;;;2.20;99.90;;;;;;5068135;28;20199;-64
2023/12/07 11:42:13;;;;;;;32.17;18.53;;;2.20;99.90;;;;;;5068123;28;20352;-64
2023/12/07 11:44:41;;;;;;;33.47;18.43;;;2.10;99.90;;;;;;5068101;28;20302;-64
2023/12/07 11:47:10;;;;;;;33.70;18.23;;;2.10;99.90;;;;;;5067738;28;20256;-64
2023/12/07 11:49:38;;;;;;;33.30;19.73;;;2.10;99.90;;;;;;5067764;28;20874;-64
2023/12/07 11:52:15;;;;;;;33.03;20.17;;;2.10;99.90;;;;;;5067663;28;20322;-64
2023/12/07 11:54:45;;;;;;;33.80;19.37;;;2.20;99.90;;;;;;5067956;28;20380;-64
2023/12/07 11:57:11;;;;;;;33.47;20.13;;;2.20;99.90;;;;;;5067496;28;20413;-64
2023/12/07 11:59:38;;;;;;;31.80;19.70;;;2.20;99.90;;;;;;5067101;28;20203;-64
2023/12/07 12:02:05;;;;;;;32.20;18.67;;;2.20;99.90;;;;;;5047864;28;20204;-64
2023/12/07 12:04:32;;;;;;;34.73;19.57;;;2.20;99.90;;;;;;5048065;28;20226;-64
2023/12/07 12:07:00;;;;;;;41.47;22.30;;;2.40;99.90;;;;;;5047124;28;20848;-64
2023/12/07 12:09:27;;;;;;;34.47;20.03;;;2.40;99.90;;;;;;5047628;28;20287;-64
2023/12/07 12:11:54;;;;;;;34.97;20.67;;;2.50;99.90;;;;;;5047200;28;20239;-64
2023/12/07 12:14:21;;;;;;;38.90;22.50;;;2.50;99.90;;;;;;5047632;28;20244;-64
2023/12/07 12:16:49;;;;;;;37.73;22.13;;;2.60;99.90;;;;;;5065706;28;20218;-64
2023/12/07 12:19:16;;;;;;;39.70;22.33;;;2.60;99.90;;;;;;5067042;28;20217;-64
2023/12/07 12:21:43;;;;;;;41.03;23.37;;;2.60;99.90;;;;;;5067285;28;20206;-64
2023/12/07 12:24:12;;;;;;;39.63;22.03;;;2.60;99.90;;;;;;5066923;28;20214;-64
2023/12/07 12:26:42;;;;;;;38.57;21.73;;;2.50;99.90;;;;;;5046974;28;20310;-64
2023/12/07 12:29:11;;;;;;;36.53;21.37;;;2.50;99.90;;;;;;5047310;28;20371;-64
2023/12/07 12:31:38;;;;;;;40.83;21.80;;;2.50;99.90;;;;;;5052000;28;20548;-64
2023/12/07 12:34:08;;;;;;;42.40;24.07;;;2.50;99.90;;;;;;5060137;28;20325;-64
2023/12/07 12:36:35;;;;;;;37.27;20.93;;;2.50;99.90;;;;;;5047213;28;20211;-64
2023/12/07 12:39:03;;;;;;;42.60;22.97;;;2.40;99.90;;;;;;5046226;28;20215;-64